Terminal Aerodrome Forecast
Issued by NWS

Home | Current Version | Previous Version | Text Only | Print | Product List | Glossary On
Versions: 1 2 3 4 5 6 7 8 9 10 11 12
000
FTPQ31 PGUM 170520
TAFGUM
TAF

TAF
PTYA 170520Z 1706/1806 21005KT P6SM VCSH SCT016 SCT030 BKN110
      TEMPO 1707/1710 VRB04KT 5SM SHRA BKN015 OVC050=

USA.gov is the U.S. government's official web portal to all federal, state and local government web resources and services.